createdAt,value
2024-05-09T00:00:36.352Z,5.74
2024-05-09T00:01:41.748Z,5.76
2024-05-09T00:02:44.029Z,5.74
2024-05-09T00:03:47.232Z,5.73
2024-05-09T00:04:49.341Z,5.66
2024-05-09T00:05:51.394Z,5.59
2024-05-09T00:06:53.380Z,5.58
2024-05-09T00:07:55.348Z,5.52
2024-05-09T00:08:57.310Z,5.47
2024-05-09T00:09:59.266Z,5.45
2024-05-09T00:11:01.370Z,5.42
2024-05-09T00:12:03.868Z,5.42
2024-05-09T00:13:10.004Z,5.40
2024-05-09T00:14:12.574Z,5.39
2024-05-09T00:15:14.566Z,5.35
2024-05-09T00:16:16.511Z,5.32
2024-05-09T00:17:18.687Z,5.29
2024-05-09T00:18:20.853Z,5.25
2024-05-09T00:19:23.179Z,5.24
2024-05-09T00:20:33.205Z,5.24
2024-05-09T00:21:45.592Z,5.16
2024-05-09T00:22:47.664Z,5.15
2024-05-09T00:23:49.742Z,5.05
2024-05-09T00:24:51.709Z,5.07
2024-05-09T00:25:53.755Z,5.03
2024-05-09T00:26:55.797Z,5.03
2024-05-09T00:27:57.833Z,5.03
2024-05-09T00:28:59.856Z,5.00
2024-05-09T00:30:02.858Z,4.98
2024-05-09T00:31:06.041Z,4.95
2024-05-09T00:32:08.458Z,4.94
2024-05-09T00:33:11.619Z,4.90
2024-05-09T00:34:14.036Z,4.90
2024-05-09T00:35:16.242Z,4.87
2024-05-09T00:36:18.160Z,4.90
2024-05-09T00:37:20.721Z,4.84
2024-05-09T00:38:22.805Z,4.83
2024-05-09T00:39:24.786Z,4.79
2024-05-09T00:40:35.746Z,4.80
2024-05-09T00:41:41.800Z,4.77
2024-05-09T00:42:43.834Z,4.74
2024-05-09T00:43:45.866Z,4.72
2024-05-09T00:44:48.310Z,4.70
2024-05-09T00:45:50.319Z,4.66
2024-05-09T00:46:55.118Z,4.66
2024-05-09T00:47:58.115Z,4.67
2024-05-09T00:49:00.758Z,4.65
2024-05-09T00:50:04.133Z,4.63
2024-05-09T00:51:06.747Z,4.62
2024-05-09T00:52:08.978Z,4.59
2024-05-09T00:53:11.864Z,4.57
2024-05-09T00:54:14.344Z,4.52
2024-05-09T00:55:17.165Z,4.53
2024-05-09T00:56:19.851Z,4.46
2024-05-09T00:57:22.038Z,4.52
2024-05-09T00:58:25.062Z,4.49
2024-05-09T00:59:27.690Z,4.49
2024-05-09T01:00:37.828Z,4.50
2024-05-09T01:01:43.441Z,4.46
2024-05-09T01:02:45.666Z,4.44
2024-05-09T01:03:50.500Z,4.46
2024-05-09T01:04:53.702Z,4.44
2024-05-09T01:05:55.834Z,4.40
2024-05-09T01:06:57.891Z,4.39
2024-05-09T01:07:59.977Z,4.32
2024-05-09T01:09:02.043Z,4.25
2024-05-09T01:10:05.529Z,4.24
2024-05-09T01:11:09.533Z,4.15
2024-05-09T01:12:11.762Z,4.17
2024-05-09T01:13:13.862Z,4.19
2024-05-09T01:14:16.001Z,4.18
2024-05-09T01:15:18.027Z,4.21
2024-05-09T01:16:20.075Z,4.21
2024-05-09T01:17:22.270Z,4.25
2024-05-09T01:18:24.455Z,4.14
2024-05-09T01:19:30.673Z,4.19
2024-05-09T01:20:40.896Z,4.14
2024-05-09T01:21:45.538Z,4.07
2024-05-09T01:22:47.995Z,4.17
2024-05-09T01:23:50.077Z,4.12
2024-05-09T01:24:53.070Z,4.08
2024-05-09T01:25:55.035Z,4.09
2024-05-09T01:26:57.061Z,4.15
2024-05-09T01:27:59.281Z,4.19
2024-05-09T01:29:04.411Z,4.19
2024-05-09T01:30:09.559Z,4.21
2024-05-09T01:31:16.623Z,4.22
2024-05-09T01:32:18.751Z,4.15
2024-05-09T01:33:20.989Z,4.18
2024-05-09T01:34:23.045Z,4.18
2024-05-09T01:35:25.510Z,4.19
2024-05-09T01:36:27.631Z,4.14
2024-05-09T01:37:29.617Z,4.09
2024-05-09T01:38:31.731Z,4.09
2024-05-09T01:39:33.717Z,4.09
2024-05-09T01:40:38.832Z,4.01
2024-05-09T01:41:42.198Z,3.99
2024-05-09T01:42:44.205Z,4.01
2024-05-09T01:43:46.334Z,4.05
2024-05-09T01:44:48.267Z,4.01
2024-05-09T01:45:50.230Z,3.99
2024-05-09T01:46:52.213Z,4.04
2024-05-09T01:47:54.515Z,4.02
2024-05-09T01:48:56.781Z,4.01
2024-05-09T01:49:58.817Z,3.98
2024-05-09T01:51:00.902Z,3.99
2024-05-09T01:52:02.862Z,3.98
2024-05-09T01:53:04.960Z,4.01
2024-05-09T01:54:07.052Z,3.95
2024-05-09T01:55:09.101Z,3.97
2024-05-09T01:56:11.152Z,3.94
2024-05-09T01:57:13.300Z,3.94
2024-05-09T01:58:15.388Z,3.93
2024-05-09T01:59:17.411Z,3.91
2024-05-09T02:00:30.151Z,3.88
2024-05-09T02:01:56.250Z,3.84
2024-05-09T02:02:59.906Z,3.84
2024-05-09T02:04:02.523Z,3.83
2024-05-09T02:05:04.982Z,3.80
2024-05-09T02:06:07.174Z,3.78
2024-05-09T02:07:09.227Z,3.77
2024-05-09T02:08:20.837Z,3.74
2024-05-09T02:09:23.010Z,3.74
2024-05-09T02:10:31.766Z,3.74
2024-05-09T02:11:41.229Z,3.73
2024-05-09T02:12:43.203Z,3.69
2024-05-09T02:13:45.215Z,3.67
2024-05-09T02:14:47.167Z,3.63
2024-05-09T02:15:52.613Z,3.63
2024-05-09T02:16:54.632Z,3.62
2024-05-09T02:17:56.908Z,3.57
2024-05-09T02:18:59.074Z,3.56
2024-05-09T02:20:01.230Z,3.52
2024-05-09T02:21:03.406Z,3.49
2024-05-09T02:22:05.366Z,3.50
2024-05-09T02:23:08.563Z,3.46
2024-05-09T02:24:10.778Z,3.42
2024-05-09T02:25:12.796Z,3.40
2024-05-09T02:26:14.810Z,3.36
2024-05-09T02:27:16.775Z,3.35
2024-05-09T02:28:20.875Z,3.33
2024-05-09T02:29:23.002Z,3.28
2024-05-09T02:30:34.933Z,3.25
2024-05-09T02:31:41.455Z,3.23
2024-05-09T02:32:43.603Z,3.25
2024-05-09T02:33:45.883Z,3.23
2024-05-09T02:34:48.116Z,3.22
2024-05-09T02:35:50.216Z,3.22
2024-05-09T02:36:56.339Z,3.19
2024-05-09T02:37:58.345Z,3.19
2024-05-09T02:39:00.405Z,3.18
2024-05-09T02:40:03.285Z,3.15
2024-05-09T02:41:05.430Z,3.09
2024-05-09T02:42:07.412Z,3.11
2024-05-09T02:43:12.528Z,3.07
2024-05-09T02:44:15.070Z,3.08
2024-05-09T02:45:17.148Z,3.07
2024-05-09T02:46:19.068Z,3.05
2024-05-09T02:47:21.291Z,3.05
2024-05-09T02:48:23.639Z,3.05
2024-05-09T02:49:25.905Z,3.05
2024-05-09T02:50:34.562Z,3.04
2024-05-09T02:51:40.814Z,3.01
2024-05-09T02:52:42.814Z,3.04
2024-05-09T02:53:44.853Z,3.04
2024-05-09T02:54:46.817Z,3.04
2024-05-09T02:55:48.863Z,3.04
2024-05-09T02:56:50.914Z,3.02
2024-05-09T02:57:52.834Z,3.00
2024-05-09T02:58:54.863Z,2.97
2024-05-09T02:59:56.841Z,2.97
2024-05-09T03:00:58.851Z,2.91
2024-05-09T03:02:01.020Z,2.85
2024-05-09T03:03:03.101Z,2.87
2024-05-09T03:04:05.549Z,2.88
2024-05-09T03:05:07.663Z,2.87
2024-05-09T03:06:09.564Z,2.88
2024-05-09T03:07:11.485Z,2.87
2024-05-09T03:08:13.649Z,2.90
2024-05-09T03:09:16.251Z,2.91
2024-05-09T03:10:22.557Z,2.91
2024-05-09T03:11:30.300Z,2.91
2024-05-09T03:12:32.438Z,2.90
2024-05-09T03:13:34.654Z,2.90
2024-05-09T03:14:36.655Z,2.91
2024-05-09T03:15:38.621Z,2.91
2024-05-09T03:16:40.649Z,2.92
2024-05-09T03:17:42.833Z,2.92
2024-05-09T03:18:45.220Z,2.92
2024-05-09T03:19:47.272Z,2.95
2024-05-09T03:20:49.519Z,2.95
2024-05-09T03:21:51.602Z,2.95
2024-05-09T03:22:56.369Z,3.00
2024-05-09T03:23:58.991Z,3.02
2024-05-09T03:25:00.959Z,3.01
2024-05-09T03:26:02.950Z,2.90
2024-05-09T03:27:05.040Z,2.97
2024-05-09T03:28:07.108Z,2.97
2024-05-09T03:29:09.180Z,3.01
2024-05-09T03:30:15.500Z,3.05
2024-05-09T03:31:20.556Z,3.18
2024-05-09T03:32:22.637Z,3.46
2024-05-09T03:33:24.894Z,3.83
2024-05-09T03:34:27.041Z,4.25
2024-05-09T03:35:29.286Z,4.79
2024-05-09T03:36:31.358Z,5.35
2024-05-09T03:37:33.314Z,5.89
2024-05-09T03:38:39.176Z,6.41
2024-05-09T03:39:41.268Z,6.93
2024-05-09T03:40:50.391Z,7.30
2024-05-09T03:41:52.803Z,7.70
2024-05-09T03:42:54.825Z,8.01
2024-05-09T03:43:56.862Z,8.32
2024-05-09T03:44:58.826Z,8.59
2024-05-09T03:46:00.840Z,8.90
2024-05-09T03:47:02.899Z,9.16
2024-05-09T03:48:05.023Z,9.11
2024-05-09T03:49:07.399Z,9.54
2024-05-09T03:50:18.000Z,9.49
2024-05-09T03:51:27.605Z,10.06
2024-05-09T03:52:29.554Z,10.34
2024-05-09T03:53:31.625Z,10.64
2024-05-09T03:54:34.972Z,10.88
2024-05-09T03:55:37.008Z,11.10
2024-05-09T03:56:39.059Z,11.31
2024-05-09T03:57:41.011Z,11.62
2024-05-09T03:58:42.946Z,11.78
2024-05-09T03:59:44.939Z,12.05
2024-05-09T04:00:47.121Z,12.19
2024-05-09T04:01:49.512Z,12.26
2024-05-09T04:02:51.597Z,12.40
2024-05-09T04:03:53.952Z,12.17
2024-05-09T04:04:56.196Z,12.00
2024-05-09T04:05:58.119Z,11.81
2024-05-09T04:06:59.999Z,12.44
2024-05-09T04:08:02.118Z,12.10
2024-05-09T04:09:05.526Z,12.63
2024-05-09T04:10:11.135Z,12.74
2024-05-09T04:11:15.991Z,13.02
2024-05-09T04:12:18.201Z,13.22
2024-05-09T04:13:20.148Z,13.43
2024-05-09T04:14:22.184Z,13.26
2024-05-09T04:15:24.374Z,13.20
2024-05-09T04:16:26.444Z,12.40
2024-05-09T04:17:28.993Z,12.34
2024-05-09T04:18:31.220Z,12.74
2024-05-09T04:19:33.335Z,12.65
2024-05-09T04:20:39.187Z,12.41
2024-05-09T04:21:42.932Z,11.99
2024-05-09T04:22:45.100Z,11.65
2024-05-09T04:23:47.212Z,11.47
2024-05-09T04:24:49.199Z,10.67
2024-05-09T04:25:51.311Z,10.73
2024-05-09T04:26:53.349Z,10.85
2024-05-09T04:27:56.170Z,10.88
2024-05-09T04:28:58.420Z,10.16
2024-05-09T04:30:00.456Z,10.62
2024-05-09T04:31:02.640Z,10.75
2024-05-09T04:32:07.951Z,11.41
2024-05-09T04:33:12.394Z,11.96
2024-05-09T04:34:16.244Z,12.16
2024-05-09T04:35:20.719Z,11.93
2024-05-09T04:36:22.714Z,12.22
2024-05-09T04:37:25.837Z,12.71
2024-05-09T04:38:29.984Z,12.98
2024-05-09T04:39:32.037Z,13.58
2024-05-09T04:40:37.025Z,13.63
2024-05-09T04:41:39.892Z,13.98
2024-05-09T04:42:41.965Z,14.08
2024-05-09T04:43:44.242Z,13.81
2024-05-09T04:44:46.284Z,14.36
2024-05-09T04:45:48.320Z,14.49
2024-05-09T04:46:50.438Z,14.73
2024-05-09T04:47:52.611Z,14.29
2024-05-09T04:48:54.703Z,13.36
2024-05-09T04:49:56.736Z,12.84
2024-05-09T04:50:58.817Z,11.98
2024-05-09T04:52:00.864Z,11.67
2024-05-09T04:53:03.099Z,11.17
2024-05-09T04:54:05.601Z,10.83
2024-05-09T04:55:08.742Z,10.14
2024-05-09T04:56:10.697Z,9.92
2024-05-09T04:57:12.741Z,9.70
2024-05-09T04:58:14.715Z,9.21
2024-05-09T04:59:16.699Z,9.23
2024-05-09T05:00:28.097Z,9.31
2024-05-09T05:01:34.729Z,9.32
2024-05-09T05:02:37.715Z,9.45
2024-05-09T05:03:40.028Z,9.39
2024-05-09T05:04:42.360Z,9.42
2024-05-09T05:05:45.895Z,9.46
2024-05-09T05:06:48.329Z,9.39
2024-05-09T05:07:50.363Z,9.39
2024-05-09T05:08:52.438Z,9.31
2024-05-09T05:09:54.577Z,9.23
2024-05-09T05:10:56.794Z,9.24
2024-05-09T05:12:00.003Z,9.20
2024-05-09T05:13:18.527Z,9.25
2024-05-09T05:14:21.265Z,9.32
2024-05-09T05:15:23.178Z,9.46
2024-05-09T05:16:25.154Z,9.58
2024-05-09T05:17:27.476Z,9.55
2024-05-09T05:18:29.836Z,9.51
2024-05-09T05:19:31.935Z,9.63
2024-05-09T05:20:34.482Z,9.48
2024-05-09T05:21:36.742Z,9.44
2024-05-09T05:22:38.969Z,9.44
2024-05-09T05:23:43.638Z,9.44
2024-05-09T05:24:45.607Z,9.54
2024-05-09T05:25:48.776Z,9.55
2024-05-09T05:26:50.945Z,9.72
2024-05-09T05:27:52.926Z,9.76
2024-05-09T05:28:55.043Z,9.75
2024-05-09T05:29:57.130Z,9.69
2024-05-09T05:30:59.193Z,9.78
2024-05-09T05:32:01.301Z,9.81
2024-05-09T05:33:04.616Z,9.97
2024-05-09T05:34:06.745Z,10.04
2024-05-09T05:35:08.836Z,10.10
2024-05-09T05:36:10.914Z,10.03
2024-05-09T05:37:12.860Z,10.17
2024-05-09T05:38:14.988Z,10.28
2024-05-09T05:39:17.021Z,10.38
2024-05-09T05:40:28.048Z,10.49
2024-05-09T05:41:37.342Z,10.64
2024-05-09T05:42:39.327Z,10.68
2024-05-09T05:43:41.320Z,10.76
2024-05-09T05:44:43.297Z,10.92
2024-05-09T05:45:45.846Z,10.91
2024-05-09T05:46:47.869Z,11.04
2024-05-09T05:47:50.081Z,11.10
2024-05-09T05:48:52.428Z,11.17
2024-05-09T05:49:54.540Z,11.31
2024-05-09T05:50:56.654Z,11.34
2024-05-09T05:51:58.621Z,11.40
2024-05-09T05:53:00.735Z,11.46
2024-05-09T05:54:02.918Z,11.41
2024-05-09T05:55:05.225Z,11.31
2024-05-09T05:56:07.383Z,11.26
2024-05-09T05:57:09.380Z,11.40
2024-05-09T05:58:11.912Z,11.41
2024-05-09T05:59:15.453Z,11.50
2024-05-09T06:00:28.532Z,11.57
2024-05-09T06:01:32.400Z,11.61
2024-05-09T06:02:35.453Z,11.57
2024-05-09T06:03:37.668Z,11.67
2024-05-09T06:04:39.861Z,11.78
2024-05-09T06:05:46.209Z,11.81
2024-05-09T06:06:48.908Z,11.90
2024-05-09T06:07:50.886Z,12.00
2024-05-09T06:08:53.192Z,12.19
2024-05-09T06:09:56.085Z,12.08
2024-05-09T06:10:58.531Z,12.09
2024-05-09T06:12:01.494Z,12.00
2024-05-09T06:13:05.035Z,12.03
2024-05-09T06:14:07.165Z,12.13
2024-05-09T06:15:09.293Z,12.12
2024-05-09T06:16:11.319Z,11.92
2024-05-09T06:17:13.559Z,12.03
2024-05-09T06:18:15.836Z,12.09
2024-05-09T06:19:19.246Z,12.19
2024-05-09T06:20:31.528Z,12.26
2024-05-09T06:21:37.903Z,12.34
2024-05-09T06:22:39.976Z,12.34
2024-05-09T06:23:48.342Z,12.29
2024-05-09T06:24:50.411Z,12.36
2024-05-09T06:25:52.655Z,12.41
2024-05-09T06:26:54.636Z,12.46
2024-05-09T06:27:56.597Z,12.50
2024-05-09T06:29:00.929Z,12.61
2024-05-09T06:30:03.044Z,12.69
2024-05-09T06:31:05.714Z,12.79
2024-05-09T06:32:07.878Z,12.81
2024-05-09T06:33:12.788Z,12.68
2024-05-09T06:34:18.870Z,12.77
2024-05-09T06:35:21.039Z,12.85
2024-05-09T06:36:23.100Z,12.89
2024-05-09T06:37:25.010Z,12.91
2024-05-09T06:38:27.118Z,13.15
2024-05-09T06:39:29.117Z,13.19
2024-05-09T06:40:37.338Z,13.12
2024-05-09T06:41:41.520Z,13.04
2024-05-09T06:42:43.457Z,12.99
2024-05-09T06:43:45.464Z,13.12
2024-05-09T06:44:47.488Z,13.04
2024-05-09T06:45:50.134Z,13.05
2024-05-09T06:46:52.312Z,12.96
2024-05-09T06:47:54.612Z,13.06
2024-05-09T06:48:57.118Z,13.12
2024-05-09T06:49:59.251Z,12.94
2024-05-09T06:51:01.389Z,12.99
2024-05-09T06:52:03.500Z,12.89
2024-05-09T06:53:05.759Z,13.04
2024-05-09T06:54:08.548Z,13.13
2024-05-09T06:55:10.486Z,13.22
2024-05-09T06:56:12.592Z,13.36
2024-05-09T06:57:14.533Z,13.43
2024-05-09T06:58:16.526Z,13.40
2024-05-09T06:59:18.596Z,13.63
2024-05-09T07:00:27.530Z,13.71
2024-05-09T07:01:37.053Z,13.54
2024-05-09T07:02:39.289Z,13.61
2024-05-09T07:03:42.080Z,13.57
2024-05-09T07:04:44.241Z,13.53
2024-05-09T07:05:47.717Z,13.55
2024-05-09T07:06:51.119Z,13.47
2024-05-09T07:07:53.116Z,13.57
2024-05-09T07:08:55.166Z,13.47
2024-05-09T07:09:57.189Z,13.40
2024-05-09T07:10:59.347Z,13.43
2024-05-09T07:12:01.553Z,13.34
2024-05-09T07:13:03.643Z,13.42
2024-05-09T07:14:05.771Z,13.50
2024-05-09T07:15:07.774Z,13.48
2024-05-09T07:16:09.751Z,13.37
2024-05-09T07:17:12.043Z,13.43
2024-05-09T07:18:20.486Z,13.36
2024-05-09T07:19:23.017Z,13.48
2024-05-09T07:20:32.496Z,13.60
2024-05-09T07:21:36.906Z,13.33
2024-05-09T07:22:38.930Z,13.57
2024-05-09T07:23:42.488Z,13.61
2024-05-09T07:24:45.611Z,13.68
2024-05-09T07:25:47.790Z,13.67
2024-05-09T07:26:51.331Z,13.70
2024-05-09T07:27:53.488Z,13.83
2024-05-09T07:28:55.559Z,13.94
2024-05-09T07:29:58.133Z,13.95
2024-05-09T07:30:59.991Z,13.94
2024-05-09T07:32:01.967Z,13.88
2024-05-09T07:33:04.214Z,13.91
2024-05-09T07:34:06.420Z,13.87
2024-05-09T07:35:08.546Z,13.94
2024-05-09T07:36:10.667Z,13.88
2024-05-09T07:37:15.710Z,13.75
2024-05-09T07:38:17.849Z,13.88
2024-05-09T07:39:21.010Z,13.90
2024-05-09T07:41:28.029Z,14.15
2024-05-09T07:42:30.030Z,14.19
2024-05-09T07:43:32.080Z,14.30
2024-05-09T07:44:34.247Z,14.33
2024-05-09T07:49:13.338Z,14.34
2024-05-09T07:50:54.890Z,14.43
2024-05-09T07:52:23.297Z,14.33
2024-05-09T07:53:36.174Z,14.60
2024-05-09T07:54:25.418Z,14.55
2024-05-09T07:55:27.618Z,14.53
2024-05-09T07:56:30.187Z,14.70
2024-05-09T07:57:32.546Z,14.79
2024-05-09T07:58:34.541Z,14.74
2024-05-09T07:59:38.040Z,14.91
2024-05-09T08:00:40.195Z,14.73
2024-05-09T08:01:42.539Z,14.91
2024-05-09T08:02:44.618Z,15.08
2024-05-09T08:03:46.808Z,15.18
2024-05-09T08:04:49.054Z,14.98
2024-05-09T08:05:52.067Z,15.08
2024-05-09T08:06:54.264Z,15.12
2024-05-09T08:07:56.399Z,15.22
2024-05-09T08:09:03.079Z,15.28
2024-05-09T08:10:12.823Z,15.22
2024-05-09T08:11:15.448Z,15.18
2024-05-09T08:12:17.576Z,15.39
2024-05-09T08:13:19.618Z,15.35
2024-05-09T08:14:21.646Z,15.48
2024-05-09T08:15:23.760Z,15.35
2024-05-09T08:16:25.833Z,15.22
2024-05-09T08:17:28.088Z,15.19
2024-05-09T08:18:30.465Z,15.40
2024-05-09T08:19:32.687Z,15.45
2024-05-09T08:20:35.651Z,15.46
2024-05-09T08:21:37.850Z,15.46
2024-05-09T08:22:39.856Z,15.42
2024-05-09T08:23:41.839Z,15.19
2024-05-09T08:24:43.855Z,15.01
2024-05-09T08:25:45.791Z,15.00
2024-05-09T08:26:47.727Z,15.12
2024-05-09T08:27:49.774Z,15.05
2024-05-09T08:28:52.281Z,15.15
2024-05-09T08:29:54.309Z,15.23
2024-05-09T08:30:57.307Z,14.91
2024-05-09T08:31:59.889Z,14.88
2024-05-09T08:33:02.234Z,15.07
2024-05-09T08:34:04.571Z,15.02
2024-05-09T08:35:06.945Z,14.95
2024-05-09T08:36:09.112Z,14.83
2024-05-09T08:37:15.769Z,14.88
2024-05-09T08:38:23.594Z,15.02
2024-05-09T08:39:25.590Z,15.02
2024-05-09T08:40:33.749Z,14.84
2024-05-09T08:41:41.964Z,14.97
2024-05-09T08:42:48.703Z,15.07
2024-05-09T08:43:50.804Z,15.08
2024-05-09T08:44:52.954Z,15.19
2024-05-09T08:45:55.622Z,15.46
2024-05-09T08:46:57.816Z,15.29
2024-05-09T08:48:01.762Z,15.38
2024-05-09T08:49:04.375Z,15.48
2024-05-09T08:50:11.035Z,15.78
2024-05-09T08:51:18.688Z,15.80
2024-05-09T08:52:20.713Z,15.93
2024-05-09T08:53:22.932Z,15.76
2024-05-09T08:54:25.025Z,15.71
2024-05-09T08:55:27.187Z,15.62
2024-05-09T08:56:31.012Z,15.55
2024-05-09T08:57:34.696Z,15.62
2024-05-09T08:58:37.149Z,15.63
2024-05-09T08:59:42.858Z,15.90
2024-05-09T09:00:46.298Z,16.15
2024-05-09T09:01:54.924Z,16.11
2024-05-09T09:03:06.383Z,15.97
2024-05-09T09:04:10.550Z,16.08
2024-05-09T09:05:17.491Z,15.83
2024-05-09T09:06:27.444Z,15.74
2024-05-09T09:07:40.209Z,16.08
2024-05-09T09:08:51.317Z,16.10
2024-05-09T09:09:54.293Z,16.32
2024-05-09T09:11:08.080Z,16.36
2024-05-09T09:12:12.558Z,16.34
2024-05-09T09:13:23.050Z,16.36
2024-05-09T09:14:25.144Z,16.52
2024-05-09T09:15:38.703Z,16.56
2024-05-09T09:16:44.158Z,16.69
2024-05-09T09:17:54.580Z,16.72
2024-05-09T09:19:01.711Z,16.92
2024-05-09T09:20:04.512Z,16.69
2024-05-09T09:21:19.268Z,16.60
2024-05-09T09:22:23.482Z,16.86
2024-05-09T09:23:28.215Z,16.80
2024-05-09T09:24:35.613Z,16.92
2024-05-09T09:25:41.127Z,16.70
2024-05-09T09:26:53.600Z,16.62
2024-05-09T09:27:55.698Z,16.80
2024-05-09T09:29:02.042Z,16.84
2024-05-09T09:30:05.620Z,16.55
2024-05-09T09:31:09.203Z,16.60
2024-05-09T09:32:11.658Z,16.56
2024-05-09T09:33:13.782Z,16.48
2024-05-09T09:34:16.163Z,16.38
2024-05-09T09:35:18.234Z,16.49
2024-05-09T09:36:20.841Z,16.51
2024-05-09T09:37:23.837Z,16.70
2024-05-09T09:38:27.907Z,16.57
2024-05-09T09:39:31.460Z,16.67
2024-05-09T09:40:37.531Z,16.53
2024-05-09T09:41:44.970Z,16.49
2024-05-09T09:42:49.340Z,16.67
2024-05-09T09:43:51.976Z,16.38
2024-05-09T09:45:02.179Z,16.52
2024-05-09T09:46:11.692Z,16.48
2024-05-09T09:47:15.882Z,16.46
2024-05-09T09:48:18.491Z,16.36
2024-05-09T09:49:20.629Z,16.46
2024-05-09T09:50:27.957Z,16.32
2024-05-09T09:51:36.425Z,16.29
2024-05-09T09:52:38.675Z,16.31
2024-05-09T09:53:41.242Z,16.49
2024-05-09T09:54:44.526Z,16.51
2024-05-09T09:55:47.147Z,16.74
2024-05-09T09:56:51.165Z,16.57
2024-05-09T09:57:53.147Z,16.51
2024-05-09T09:58:56.253Z,16.60
2024-05-09T09:59:58.179Z,16.48
2024-05-09T10:01:00.316Z,16.55
2024-05-09T10:02:02.705Z,16.57
2024-05-09T10:03:04.865Z,16.59
2024-05-09T10:04:07.265Z,16.67
2024-05-09T10:05:09.731Z,16.56
2024-05-09T10:06:12.256Z,16.66
2024-05-09T10:07:14.976Z,16.67
2024-05-09T10:08:18.076Z,16.74
2024-05-09T10:09:20.313Z,16.62
2024-05-09T10:10:30.291Z,16.89
2024-05-09T10:11:41.861Z,16.87
2024-05-09T10:13:01.157Z,16.86
2024-05-09T10:14:03.494Z,16.76
2024-05-09T10:15:09.439Z,16.73
2024-05-09T10:16:12.387Z,16.87
2024-05-09T10:17:14.866Z,16.89
2024-05-09T10:18:17.181Z,16.84
2024-05-09T10:19:28.769Z,16.97
2024-05-09T10:20:39.883Z,16.72
2024-05-09T10:21:46.791Z,16.70
2024-05-09T10:22:50.703Z,16.63
2024-05-09T10:24:02.770Z,16.79
2024-05-09T10:25:06.196Z,16.57
2024-05-09T10:26:08.289Z,16.74
2024-05-09T10:27:10.380Z,16.86
2024-05-09T10:28:12.714Z,16.87
2024-05-09T10:29:16.185Z,16.89
2024-05-09T10:30:29.750Z,16.90
2024-05-09T10:31:39.553Z,16.67
2024-05-09T10:32:41.870Z,16.89
2024-05-09T10:33:52.228Z,17.15
2024-05-09T10:35:01.233Z,17.17
2024-05-09T10:36:04.104Z,17.23
2024-05-09T10:37:06.615Z,17.31
2024-05-09T10:38:08.794Z,17.20
2024-05-09T10:39:13.711Z,17.24
2024-05-09T10:40:23.425Z,17.18
2024-05-09T10:41:30.974Z,17.23
2024-05-09T10:42:33.167Z,17.24
2024-05-09T10:43:38.776Z,16.99
2024-05-09T10:44:40.771Z,16.89
2024-05-09T10:45:42.864Z,17.02
2024-05-09T10:46:46.627Z,16.83
2024-05-09T10:47:48.793Z,16.80
2024-05-09T10:48:50.978Z,16.97
2024-05-09T10:49:53.169Z,16.87
2024-05-09T10:50:55.149Z,17.02
2024-05-09T10:51:57.310Z,17.04
2024-05-09T10:52:59.407Z,17.11
2024-05-09T10:54:04.070Z,16.99
2024-05-09T10:55:06.695Z,16.82
2024-05-09T10:56:09.358Z,17.00
2024-05-09T10:57:11.366Z,17.07
2024-05-09T10:58:17.553Z,17.07
2024-05-09T10:59:19.742Z,17.08
2024-05-09T11:00:27.749Z,17.11
2024-05-09T11:01:35.734Z,17.10
2024-05-09T11:02:37.963Z,17.25
2024-05-09T11:03:40.408Z,17.31
2024-05-09T11:04:42.924Z,17.27
2024-05-09T11:05:46.261Z,17.25
2024-05-09T11:06:48.427Z,17.18
2024-05-09T11:07:50.752Z,17.34
2024-05-09T11:08:52.905Z,17.34
2024-05-09T11:09:55.040Z,17.51
2024-05-09T11:10:57.163Z,17.62
2024-05-09T11:11:59.459Z,17.72
2024-05-09T11:13:01.556Z,17.97
2024-05-09T11:14:18.580Z,17.99
2024-05-09T11:15:20.682Z,18.06
2024-05-09T11:16:22.872Z,18.03
2024-05-09T11:17:25.122Z,18.03
2024-05-09T11:18:30.625Z,18.01
2024-05-09T11:19:41.704Z,18.01
2024-05-09T11:20:43.862Z,18.20
2024-05-09T11:21:51.043Z,18.24
2024-05-09T11:22:53.163Z,18.24
2024-05-09T11:23:55.510Z,18.17
2024-05-09T11:24:57.625Z,18.25
2024-05-09T11:25:59.695Z,18.24
2024-05-09T11:27:05.939Z,17.96
2024-05-09T11:28:07.932Z,18.13
2024-05-09T11:29:10.112Z,17.97
2024-05-09T11:30:26.702Z,18.00
2024-05-09T11:31:35.423Z,17.83
2024-05-09T11:32:38.046Z,17.87
2024-05-09T11:33:41.318Z,17.78
2024-05-09T11:34:43.596Z,17.78
2024-05-09T11:35:46.797Z,17.73
2024-05-09T11:36:48.984Z,17.69
2024-05-09T11:37:51.065Z,17.63
2024-05-09T11:38:53.043Z,17.59
2024-05-09T11:39:55.140Z,17.53
2024-05-09T11:40:57.182Z,17.52
2024-05-09T11:41:59.240Z,17.45
2024-05-09T11:43:01.191Z,17.53
2024-05-09T11:44:03.129Z,17.39
2024-05-09T11:45:05.275Z,17.49
2024-05-09T11:46:07.324Z,17.41
2024-05-09T11:47:09.290Z,17.44
2024-05-09T11:48:11.404Z,17.56
2024-05-09T11:49:13.565Z,17.52
2024-05-09T11:50:22.629Z,17.45
2024-05-09T11:51:31.560Z,17.46
2024-05-09T11:52:33.534Z,17.51
2024-05-09T11:53:35.564Z,17.59
2024-05-09T11:54:37.763Z,17.61
2024-05-09T11:55:39.772Z,17.61
2024-05-09T11:56:41.882Z,17.66
2024-05-09T11:57:43.983Z,17.75
2024-05-09T11:58:45.946Z,17.66
2024-05-09T11:59:47.968Z,17.68
2024-05-09T12:00:50.327Z,17.66
2024-05-09T12:01:52.709Z,17.69
2024-05-09T12:02:56.422Z,17.69
2024-05-09T12:03:58.988Z,17.76
2024-05-09T12:05:01.612Z,17.90
2024-05-09T12:06:04.344Z,17.97
2024-05-09T12:07:08.455Z,18.10
2024-05-09T12:08:12.401Z,18.13
2024-05-09T12:09:14.342Z,18.32
2024-05-09T12:10:19.870Z,18.25
2024-05-09T12:11:24.799Z,18.32
2024-05-09T12:12:28.114Z,18.17
2024-05-09T12:13:30.252Z,18.17
2024-05-09T12:14:32.333Z,18.18
2024-05-09T12:15:37.554Z,18.35
2024-05-09T12:16:40.825Z,18.18
2024-05-09T12:17:43.584Z,18.24
2024-05-09T12:18:46.223Z,18.17
2024-05-09T12:19:48.496Z,18.22
2024-05-09T12:20:50.444Z,18.30
2024-05-09T12:23:11.858Z,18.10
2024-05-09T12:24:16.964Z,18.14
2024-05-09T12:25:20.360Z,18.32
2024-05-09T12:26:22.513Z,18.37
2024-05-09T12:27:24.971Z,18.34
2024-05-09T12:28:27.350Z,18.35
2024-05-09T12:29:29.511Z,18.52
2024-05-09T12:30:36.990Z,18.59
2024-05-09T12:31:41.710Z,18.64
2024-05-09T12:32:43.816Z,18.57
2024-05-09T12:33:46.490Z,18.45
2024-05-09T12:34:48.606Z,18.45
2024-05-09T12:35:51.177Z,18.34
2024-05-09T12:36:53.464Z,18.18
2024-05-09T12:37:55.552Z,18.28
2024-05-09T12:38:57.680Z,18.20
2024-05-09T12:39:59.841Z,18.22
2024-05-09T12:41:02.017Z,18.28
2024-05-09T12:42:04.126Z,18.10
2024-05-09T12:43:10.266Z,17.97
2024-05-09T12:44:13.252Z,18.04
2024-05-09T12:45:15.563Z,17.97
2024-05-09T12:46:20.761Z,17.89
2024-05-09T12:47:23.038Z,17.90
2024-05-09T12:48:25.208Z,17.97
2024-05-09T12:49:27.610Z,18.25
2024-05-09T12:50:33.053Z,18.25
2024-05-09T12:51:36.477Z,18.25
2024-05-09T12:52:38.450Z,18.27
2024-05-09T12:53:40.454Z,18.22
2024-05-09T12:54:42.486Z,18.27
2024-05-09T12:55:53.412Z,18.22
2024-05-09T12:56:59.381Z,18.07
2024-05-09T12:58:01.400Z,18.18
2024-05-09T12:59:03.458Z,18.16
2024-05-09T13:00:07.387Z,18.21
2024-05-09T13:01:11.507Z,18.21
2024-05-09T13:02:15.802Z,18.16
2024-05-09T13:03:17.970Z,18.37
2024-05-09T13:04:20.257Z,18.22
2024-05-09T13:05:22.561Z,18.25
2024-05-09T13:06:24.711Z,18.37
2024-05-09T13:07:26.742Z,18.44
2024-05-09T13:08:28.852Z,18.38
2024-05-09T13:09:31.079Z,18.31
2024-05-09T13:10:33.728Z,18.47
2024-05-09T13:11:36.114Z,18.49
2024-05-09T13:12:38.787Z,18.57
2024-05-09T13:13:40.889Z,18.68
2024-05-09T13:14:43.127Z,18.45
2024-05-09T13:15:45.254Z,18.32
2024-05-09T13:16:47.483Z,18.43
2024-05-09T13:17:49.745Z,18.47
2024-05-09T13:18:51.972Z,18.32
2024-05-09T13:19:54.077Z,18.40
2024-05-09T13:20:56.112Z,18.49
2024-05-09T13:21:58.210Z,18.57
2024-05-09T13:23:01.635Z,18.61
2024-05-09T13:24:03.883Z,18.62
2024-05-09T13:25:05.983Z,18.71
2024-05-09T13:26:08.142Z,18.59
2024-05-09T13:27:10.554Z,18.57
2024-05-09T13:28:12.820Z,18.49
2024-05-09T13:29:14.974Z,18.59
2024-05-09T13:30:25.903Z,18.59
2024-05-09T13:31:32.562Z,18.51
2024-05-09T13:32:34.973Z,18.52
2024-05-09T13:33:37.204Z,18.49
2024-05-09T13:34:39.443Z,18.57
2024-05-09T13:35:46.844Z,18.58
2024-05-09T13:36:51.955Z,18.64
2024-05-09T13:37:54.034Z,18.58
2024-05-09T13:38:56.902Z,18.64
2024-05-09T13:39:59.597Z,18.67
2024-05-09T13:41:01.801Z,18.72
2024-05-09T13:42:03.949Z,18.76
2024-05-09T13:43:06.310Z,18.82
2024-05-09T13:44:09.068Z,18.90
2024-05-09T13:45:11.055Z,18.95
2024-05-09T13:46:13.154Z,18.93
2024-05-09T13:47:15.261Z,18.71
2024-05-09T13:48:17.486Z,18.76
2024-05-09T13:49:19.770Z,18.69
2024-05-09T13:50:30.945Z,18.73
2024-05-09T13:51:36.910Z,18.79
2024-05-09T13:52:38.957Z,18.75